Terminal Aerodrome Forecast
Issued by NWS

Home | Current Version | Previous Version | Text Only | Print | Product List | Glossary On
Versions: 1 2 3 4 5 6 7 8 9 10 11 12 13 14 15 16 17 18 19 20 21 22 23 24 25
000
FTUS41 KBTV 241131
TAFSLK
TAF
KSLK 241131Z 2412/2512 23004KT P6SM SCT015 OVC025
      TEMPO 2412/2414 BKN015 OVC025
     FM241400 22008G16KT P6SM OVC025
     FM241700 21011G18KT P6SM OVC045
     FM242100 21009G17KT P6SM FEW250 WS020/22040KT
     FM250300 21010G18KT P6SM SCT200 WS020/22045KT=

USA.gov is the U.S. government's official web portal to all federal, state and local government web resources and services.